Time;durP1;ratioP1;P1;durP2;ratioP2;P2;SDS_P1;SDS_P2;PMS_P1;PMS_P2;Temp;Humidity;BMP_temperature;BMP_pressure;BME280_temperature;BME280_humidity;BME280_pressure;Samples;Min_cycle;Max_cycle;Signal;HPM_P1;HPM_P2
2022/12/07 00:01:07;;;;;;;5.80;5.20;;;;;;;1.10;100.00;98999.86;101919;1359;22653;-32
2022/12/07 00:03:33;;;;;;;5.80;3.60;;;;;;;1.11;100.00;98992.20;101909;1365;22403;-33
2022/12/07 00:05:59;;;;;;;6.30;4.20;;;;;;;1.08;100.00;98986.17;101924;1356;22774;-36
2022/12/07 00:08:25;;;;;;;4.40;2.90;;;;;;;0.91;100.00;98985.27;101981;1359;22412;-36
2022/12/07 00:10:50;;;;;;;8.20;4.00;;;;;;;0.97;100.00;98990.73;101972;1356;22262;-33
2022/12/07 00:13:15;;;;;;;;;;;;;;;0.92;100.00;98991.90;101982;1357;22113;-36
2022/12/07 00:15:41;;;;;;;10.90;2.80;;;;;;;1.02;100.00;98990.40;102024;1359;22622;-33
2022/12/07 00:18:06;;;;;;;8.40;2.90;;;;;;;1.27;100.00;98972.98;101762;1358;22819;-32
2022/12/07 00:20:33;;;;;;;3.00;2.70;;;;;;;1.11;100.00;98961.39;101735;1356;22243;-36
2022/12/07 00:22:59;;;;;;;3.20;2.30;;;;;;;1.12;100.00;98954.54;101967;1358;22642;-36
2022/12/07 00:25:24;;;;;;;4.90;2.90;;;;;;;0.88;100.00;98959.81;101543;1356;22637;-34
2022/12/07 00:27:50;;;;;;;7.10;4.20;;;;;;;0.79;100.00;98968.06;101503;1356;22198;-36
2022/12/07 00:30:16;;;;;;;6.70;4.10;;;;;;;0.80;100.00;98976.23;101990;1365;22330;-33
2022/12/07 00:32:42;;;;;;;9.30;3.80;;;;;;;0.69;100.00;98981.89;101961;1359;22274;-36
2022/12/07 00:35:08;;;;;;;9.70;5.80;;;;;;;0.68;100.00;98990.24;101972;1359;22473;-32
2022/12/07 00:37:33;;;;;;;5.80;1.70;;;;;;;0.73;100.00;98997.20;101943;1359;22267;-36
2022/12/07 00:39:58;;;;;;;4.70;2.50;;;;;;;0.67;100.00;99000.77;102042;1349;22477;-32
2022/12/07 00:42:24;;;;;;;7.30;3.80;;;;;;;0.62;100.00;99007.10;101979;1359;22598;-36
2022/12/07 00:44:49;;;;;;;7.30;3.90;;;;;;;0.76;100.00;99009.64;101945;1360;22264;-33
2022/12/07 00:47:15;;;;;;;8.80;5.20;;;;;;;0.95;100.00;99004.80;101887;1359;22410;-33
2022/12/07 00:49:41;;;;;;;13.20;4.60;;;;;;;1.06;100.00;98990.58;101925;1359;22714;-33
2022/12/07 00:52:06;;;;;;;2.70;2.40;;;;;;;1.16;100.00;98978.84;102056;1366;22277;-33
2022/12/07 00:54:32;;;;;;;16.10;6.30;;;;;;;0.96;100.00;98971.61;102038;1359;22607;-36
2022/12/07 00:56:57;;;;;;;5.70;4.60;;;;;;;0.86;100.00;98974.30;101963;1356;22185;-35
2022/12/07 00:59:23;;;;;;;6.50;3.00;;;;;;;0.83;100.00;98979.52;102002;1357;22613;-36
2022/12/07 01:01:49;;;;;;;4.90;3.80;;;;;;;0.75;100.00;98989.28;101955;1375;22611;-36
2022/12/07 01:04:15;;;;;;;7.30;5.30;;;;;;;0.74;100.00;98990.27;101937;1355;22262;-32
2022/12/07 01:06:41;;;;;;;6.90;4.60;;;;;;;0.86;100.00;98994.36;101998;1359;22260;-36
2022/12/07 01:09:06;;;;;;;7.00;4.90;;;;;;;0.58;100.00;98996.50;101943;1368;22321;-32
2022/12/07 01:11:32;;;;;;;13.70;6.70;;;;;;;0.68;100.00;98996.26;102072;1359;22170;-32
2022/12/07 01:13:58;;;;;;;5.60;4.70;;;;;;;0.67;100.00;98999.55;101964;1376;22487;-32
2022/12/07 01:16:26;;;;;;;3.70;3.20;;;;;;;0.92;100.00;98993.81;101978;1359;22175;-32
2022/12/07 01:18:53;;;;;;;8.30;6.20;;;;;;;0.89;100.00;98982.96;101805;1358;25679;-32
2022/12/07 01:21:21;;;;;;;5.50;4.30;;;;;;;1.03;100.00;98971.11;101803;1358;22506;-35
2022/12/07 01:23:46;;;;;;;7.00;5.10;;;;;;;1.03;100.00;98957.36;102085;1356;22395;-33
2022/12/07 01:26:14;;;;;;;11.20;4.80;;;;;;;0.91;100.00;98956.91;102011;1356;22323;-35
2022/12/07 01:28:39;;;;;;;6.80;3.60;;;;;;;0.94;100.00;98952.70;101929;1375;23348;-33
2022/12/07 01:31:07;;;;;;;5.30;2.30;;;;;;;0.85;100.00;98953.66;101964;1359;23414;-37
2022/12/07 01:33:34;;;;;;;4.80;2.40;;;;;;;0.68;100.00;98960.14;101937;1359;22454;-36
2022/12/07 01:36:03;;;;;;;6.20;5.30;;;;;;;0.74;100.00;98962.24;101975;1359;22410;-37
2022/12/07 01:38:29;;;;;;;6.00;3.60;;;;;;;0.76;100.00;98968.88;101973;1375;22242;-37
2022/12/07 01:40:56;;;;;;;6.20;5.30;;;;;;;0.68;100.00;98961.73;101917;1359;22611;-37
2022/12/07 01:43:21;;;;;;;6.50;5.80;;;;;;;0.90;100.00;98963.52;101946;1356;22177;-37
2022/12/07 01:45:47;;;;;;;2.30;1.70;;;;;;;0.71;100.00;98961.48;101733;1374;22320;-34
2022/12/07 01:48:14;;;;;;;7.00;4.60;;;;;;;0.56;100.00;98960.21;101810;1356;22628;-34
2022/12/07 01:50:40;;;;;;;1.40;1.20;;;;;;;0.59;100.00;98964.65;101975;1356;22169;-37
2022/12/07 01:53:06;;;;;;;8.30;6.10;;;;;;;0.52;100.00;98963.81;102094;1359;22280;-33
2022/12/07 01:55:32;;;;;;;6.20;3.70;;;;;;;0.38;100.00;98965.78;101990;1356;22283;-34
2022/12/07 01:57:57;;;;;;;8.50;5.60;;;;;;;0.22;100.00;98973.05;101989;1356;22402;-34
2022/12/07 02:00:23;;;;;;;7.50;4.80;;;;;;;0.34;100.00;98979.18;101972;1355;22238;-33
2022/12/07 02:02:51;;;;;;;11.30;7.00;;;;;;;0.43;100.00;98985.05;102039;1360;22440;-37
2022/12/07 02:05:17;;;;;;;15.10;6.90;;;;;;;0.40;100.00;98983.16;101913;1368;22610;-37
2022/12/07 02:07:42;;;;;;;15.70;7.70;;;;;;;0.29;100.00;98984.55;101904;1366;22610;-33
2022/12/07 02:10:13;;;;;;;7.10;4.70;;;;;;;0.30;100.00;98985.70;102025;1359;22683;-33
2022/12/07 02:12:39;;;;;;;8.80;5.20;;;;;;;0.30;100.00;98990.96;101908;1356;22644;-34
2022/12/07 02:15:05;;;;;;;5.10;3.20;;;;;;;0.29;100.00;98996.54;101929;1360;22254;-34
2022/12/07 02:17:36;;;;;;;6.80;4.60;;;;;;;0.32;100.00;98995.58;102026;1360;22384;-34
2022/12/07 02:20:10;;;;;;;3.90;2.60;;;;;;;0.38;100.00;98995.17;101951;1358;22301;-31
2022/12/07 02:22:41;;;;;;;6.00;5.10;;;;;;;0.39;100.00;98995.98;102049;1358;22625;-31
2022/12/07 02:25:14;;;;;;;9.10;4.30;;;;;;;0.35;100.00;98992.27;102091;1375;22263;-33
2022/12/07 02:27:41;;;;;;;2.20;1.50;;;;;;;0.42;100.00;98986.46;101960;1374;22411;-37
2022/12/07 02:30:11;;;;;;;6.50;3.90;;;;;;;0.39;100.00;98984.90;101995;1356;22297;-34
2022/12/07 02:32:44;;;;;;;5.00;4.10;;;;;;;0.30;100.00;98980.58;101927;1357;22609;-31
2022/12/07 02:35:15;;;;;;;4.00;2.00;;;;;;;0.22;100.00;98985.72;102064;1375;22331;-34
2022/12/07 02:37:42;;;;;;;6.60;4.90;;;;;;;0.21;100.00;98987.00;101607;1375;542274;-35
2022/12/07 02:40:15;;;;;;;7.00;3.70;;;;;;;0.14;100.00;98988.95;101690;1377;22330;-34
2022/12/07 02:42:44;;;;;;;2.60;2.00;;;;;;;0.24;100.00;98985.86;102142;1350;22615;-35
2022/12/07 02:45:10;;;;;;;3.30;2.00;;;;;;;0.17;100.00;98983.72;102004;1359;22317;-32
2022/12/07 02:47:36;;;;;;;3.30;1.30;;;;;;;0.17;100.00;98987.23;101965;1354;22428;-32
2022/12/07 02:50:05;;;;;;;3.90;2.80;;;;;;;0.29;100.00;98982.58;101925;1359;22590;-35
2022/12/07 02:52:30;;;;;;;5.90;4.90;;;;;;;0.41;100.00;98974.31;101656;1375;22444;-32
2022/12/07 02:54:55;;;;;;;21.30;4.00;;;;;;;0.20;100.00;98974.44;101886;1360;22178;-35
2022/12/07 02:57:29;;;;;;;1.40;1.00;;;;;;;0.33;100.00;98973.98;101908;1372;22319;-32
2022/12/07 03:00:00;;;;;;;3.30;2.30;;;;;;;0.29;100.00;98968.57;102039;1356;22587;-32
2022/12/07 03:02:33;;;;;;;6.10;2.20;;;;;;;0.26;100.00;98975.28;101947;1356;22255;-32
2022/12/07 03:05:22;;;;;;;1.00;0.90;;;;;;;0.24;100.00;98973.04;101948;1356;22877;-35
2022/12/07 03:07:51;;;;;;;4.10;2.70;;;;;;;0.23;100.00;98974.18;102016;1372;22377;-32
2022/12/07 03:10:22;;;;;;;3.20;2.30;;;;;;;0.22;100.00;98972.02;101959;1375;22630;-35
2022/12/07 03:12:51;;;;;;;4.00;3.00;;;;;;;0.39;100.00;98968.08;101979;1375;22367;-35
2022/12/07 03:15:25;;;;;;;3.20;2.20;;;;;;;0.34;100.00;98959.77;101824;1372;22620;-36
2022/12/07 03:17:51;;;;;;;5.00;3.60;;;;;;;0.17;100.00;98955.88;102070;1356;22689;-35
2022/12/07 03:20:18;;;;;;;7.10;3.20;;;;;;;0.31;100.00;98956.58;102007;1356;22740;-36
2022/12/07 03:22:44;;;;;;;6.30;2.60;;;;;;;-0.05;100.00;98955.95;101994;1359;22639;-32
2022/12/07 03:25:11;;;;;;;1.20;1.00;;;;;;;0.03;100.00;98968.28;101996;1358;22310;-32
2022/12/07 03:27:41;;;;;;;1.90;1.60;;;;;;;0.11;100.00;98963.70;101981;1358;22296;-36
2022/12/07 03:30:08;;;;;;;2.80;1.80;;;;;;;-0.06;100.00;98967.32;102056;1357;22226;-33
2022/12/07 03:32:37;;;;;;;4.10;3.30;;;;;;;0.06;100.00;98968.75;101893;1377;22163;-33
2022/12/07 03:35:05;;;;;;;4.10;2.30;;;;;;;-0.05;100.00;98967.81;101974;1356;22311;-36
2022/12/07 03:37:34;;;;;;;4.40;3.70;;;;;;;-0.05;100.00;98974.08;101947;1376;22166;-36
2022/12/07 03:40:13;;;;;;;6.20;3.30;;;;;;;-0.02;100.00;98976.82;102010;1375;22397;-32
2022/12/07 03:42:39;;;;;;;4.50;2.50;;;;;;;-0.04;100.00;98980.40;102014;1375;22303;-36
2022/12/07 03:45:04;;;;;;;2.80;2.00;;;;;;;-0.12;100.00;98980.41;102002;1368;22148;-33
2022/12/07 03:47:35;;;;;;;4.70;3.10;;;;;;;-0.13;100.00;98991.35;102003;1356;22802;-36
2022/12/07 03:50:06;;;;;;;4.40;3.60;;;;;;;-0.12;100.00;98991.08;101946;1374;22167;-33
2022/12/07 03:52:39;;;;;;;2.50;2.20;;;;;;;-0.10;100.00;98986.13;102035;1375;23659;-33
2022/12/07 03:55:10;;;;;;;0.90;0.60;;;;;;;-0.14;100.00;98985.15;101952;1356;22298;-32
2022/12/07 03:57:35;;;;;;;3.10;2.20;;;;;;;-0.15;100.00;98987.55;101985;1356;22602;-32
2022/12/07 04:00:01;;;;;;;3.10;2.60;;;;;;;-0.04;100.00;98990.21;102007;1359;22295;-36
2022/12/07 04:02:27;;;;;;;4.40;2.60;;;;;;;-0.08;100.00;98985.82;101947;1359;22641;-37
2022/12/07 04:04:52;;;;;;;2.20;0.80;;;;;;;-0.19;100.00;98983.27;102065;1374;22489;-36
2022/12/07 04:07:18;;;;;;;1.70;0.90;;;;;;;-0.20;100.00;98986.23;102023;1375;22698;-36
2022/12/07 04:09:43;;;;;;;3.00;1.80;;;;;;;-0.30;100.00;98991.98;101947;1358;22268;-36
2022/12/07 04:12:09;;;;;;;1.20;0.80;;;;;;;-0.26;100.00;98995.15;102003;1359;22628;-36
2022/12/07 04:14:34;;;;;;;3.60;2.70;;;;;;;-0.31;100.00;98994.52;101932;1375;22261;-36
2022/12/07 04:17:00;;;;;;;5.20;2.50;;;;;;;-0.30;100.00;98993.59;101975;1364;22467;-33
2022/12/07 04:19:28;;;;;;;3.80;1.80;;;;;;;-0.35;100.00;98992.69;101978;1356;22158;-33
2022/12/07 04:21:54;;;;;;;3.10;1.80;;;;;;;-0.37;100.00;99000.05;101977;1360;22410;-33
2022/12/07 04:24:20;;;;;;;3.10;2.20;;;;;;;-0.38;100.00;99003.35;101547;1356;22607;-34
2022/12/07 04:26:46;;;;;;;5.70;1.70;;;;;;;-0.37;100.00;99002.91;101894;1358;22284;-37
2022/12/07 04:29:11;;;;;;;3.00;1.70;;;;;;;-0.30;100.00;99003.08;102062;1375;22479;-35
2022/12/07 04:31:37;;;;;;;0.80;0.50;;;;;;;-0.34;100.00;98999.38;101948;1375;22293;-36
2022/12/07 04:34:03;;;;;;;1.40;0.90;;;;;;;-0.29;100.00;98994.76;102048;1359;22336;-33
2022/12/07 04:36:28;;;;;;;1.90;1.20;;;;;;;-0.31;100.00;98991.27;102025;1356;22269;-33
2022/12/07 04:38:54;;;;;;;1.10;0.60;;;;;;;-0.37;100.00;98991.11;101593;1375;22814;-37
2022/12/07 04:41:26;;;;;;;2.70;0.80;;;;;;;-0.27;100.00;98996.17;101923;1359;22529;-36
2022/12/07 04:43:55;;;;;;;1.20;0.60;;;;;;;-0.10;100.00;98995.68;102005;1372;22756;-36
2022/12/07 04:46:22;;;;;;;3.60;1.20;;;;;;;0.17;100.00;98987.02;101975;1368;22698;-36
2022/12/07 04:48:48;;;;;;;1.00;0.40;;;;;;;0.25;100.00;98970.31;102045;1358;22640;-36
2022/12/07 04:51:15;;;;;;;1.50;0.80;;;;;;;0.15;100.00;98959.82;101913;1358;22294;-36
2022/12/07 04:53:41;;;;;;;0.80;0.70;;;;;;;0.11;100.00;98950.52;101859;1356;22303;-36
2022/12/07 04:56:06;;;;;;;1.20;0.80;;;;;;;0.29;100.00;98948.45;101987;1363;22850;-36
2022/12/07 04:58:32;;;;;;;4.90;1.50;;;;;;;0.20;100.00;98939.08;101998;1365;22319;-36
2022/12/07 05:00:57;;;;;;;1.50;1.30;;;;;;;0.19;100.00;98935.50;101944;1368;22655;-32
2022/12/07 05:03:23;;;;;;;1.80;1.10;;;;;;;-0.03;100.00;98933.25;101984;1360;22454;-36
2022/12/07 05:05:48;;;;;;;0.80;0.40;;;;;;;0.18;100.00;98934.16;101960;1359;22646;-33
2022/12/07 05:08:14;;;;;;;1.90;0.60;;;;;;;0.22;100.00;98929.54;101939;1358;22307;-36
2022/12/07 05:10:39;;;;;;;1.70;0.70;;;;;;;0.05;100.00;98921.60;102046;1359;22299;-33
2022/12/07 05:13:05;;;;;;;1.10;0.60;;;;;;;0.17;100.00;98922.27;101913;1375;22166;-33
2022/12/07 05:15:30;;;;;;;1.20;0.80;;;;;;;0.14;100.00;98922.39;101795;1356;22716;-36
2022/12/07 05:17:56;;;;;;;1.70;0.80;;;;;;;0.28;100.00;98919.52;101911;1359;24146;-32
2022/12/07 05:20:21;;;;;;;1.90;0.70;;;;;;;0.21;100.00;98910.45;101988;1359;22688;-36
2022/12/07 05:22:47;;;;;;;0.10;0.10;;;;;;;0.30;100.00;98908.27;101971;1356;23809;-33
2022/12/07 05:25:12;;;;;;;0.80;0.40;;;;;;;0.17;100.00;98907.64;102184;1356;22622;-33
2022/12/07 05:27:38;;;;;;;1.10;0.70;;;;;;;-0.02;100.00;98914.33;102026;1356;22637;-34
2022/12/07 05:30:05;;;;;;;0.90;0.60;;;;;;;0.04;100.00;98920.65;101963;1356;22278;-33
2022/12/07 05:32:30;;;;;;;0.80;0.50;;;;;;;0.22;100.00;98926.03;101996;1356;22462;-36
2022/12/07 05:34:56;;;;;;;0.90;0.80;;;;;;;0.22;100.00;98923.45;102005;1359;22631;-33
2022/12/07 05:37:21;;;;;;;1.10;0.60;;;;;;;0.18;100.00;98923.27;101946;1364;22612;-33
2022/12/07 05:39:47;;;;;;;0.80;0.60;;;;;;;0.27;100.00;98923.27;101948;1359;22310;-33
2022/12/07 05:42:12;;;;;;;0.60;0.30;;;;;;;0.15;100.00;98925.98;101951;1359;22418;-36
2022/12/07 05:44:39;;;;;;;1.50;0.80;;;;;;;0.16;100.00;98926.08;101875;1359;22174;-36
2022/12/07 05:47:04;;;;;;;0.60;0.30;;;;;;;0.27;100.00;98927.86;102018;1375;22445;-36
2022/12/07 05:49:30;;;;;;;2.60;0.70;;;;;;;0.10;100.00;98932.56;101940;1359;22630;-33
2022/12/07 05:51:55;;;;;;;1.30;0.80;;;;;;;0.21;100.00;98938.77;101969;1359;22211;-36
2022/12/07 05:54:21;;;;;;;0.90;0.50;;;;;;;0.14;100.00;98940.15;101753;1372;22268;-36
2022/12/07 05:56:47;;;;;;;1.10;0.90;;;;;;;0.10;100.00;98943.38;102026;1359;22660;-33
2022/12/07 06:01:42;;;;;;;3.40;0.70;;;;;;;0.07;100.00;98941.38;101935;1358;22297;-33
2022/12/07 06:04:07;;;;;;;1.00;0.80;;;;;;;0.13;100.00;98947.65;102018;1356;22318;-34
2022/12/07 06:06:33;;;;;;;0.90;0.40;;;;;;;0.02;100.00;98948.46;101959;1366;22614;-36
2022/12/07 06:08:58;;;;;;;0.50;0.40;;;;;;;0.23;100.00;98951.13;101885;1356;22170;-36
2022/12/07 06:13:53;;;;;;;1.30;0.70;;;;;;;0.08;100.00;98945.52;101960;1359;22227;-33
2022/12/07 06:16:18;;;;;;;1.10;1.00;;;;;;;0.13;100.00;98947.82;101925;1356;22680;-36
2022/12/07 06:18:44;;;;;;;5.20;1.00;;;;;;;0.16;100.00;98947.70;101946;1375;22321;-35
2022/12/07 06:21:09;;;;;;;1.30;1.00;;;;;;;0.11;100.00;98949.79;102113;1357;22258;-33
2022/12/07 06:23:35;;;;;;;1.40;0.50;;;;;;;0.06;100.00;98950.94;101944;1356;22829;-33
2022/12/07 06:26:00;;;;;;;0.30;0.20;;;;;;;0.08;100.00;98948.61;102053;1375;22438;-33
2022/12/07 06:28:26;;;;;;;1.10;0.90;;;;;;;0.00;100.00;98947.77;102049;1355;22285;-33
2022/12/07 06:30:58;;;;;;;2.50;1.90;;;;;;;0.11;100.00;98949.77;101950;1375;22205;-33
2022/12/07 06:33:23;;;;;;;2.00;1.40;;;;;;;0.19;100.00;98952.67;101930;1375;22403;-36
2022/12/07 06:35:49;;;;;;;7.30;2.70;;;;;;;0.08;100.00;98948.43;101969;1359;22630;-33
2022/12/07 06:38:14;;;;;;;3.10;2.40;;;;;;;-0.06;100.00;98952.59;102041;1356;22314;-36
2022/12/07 06:40:40;;;;;;;4.80;4.40;;;;;;;-0.15;100.00;98966.02;101918;1356;22612;-33
2022/12/07 06:43:05;;;;;;;1.70;1.50;;;;;;;0.02;100.00;98974.37;102013;1356;22273;-36
2022/12/07 06:45:31;;;;;;;1.40;1.00;;;;;;;0.07;100.00;98969.33;101871;1357;22619;-32
2022/12/07 06:47:56;;;;;;;0.50;0.50;;;;;;;0.03;100.00;98965.09;101922;1361;23760;-36
2022/12/07 06:50:22;;;;;;;1.00;0.90;;;;;;;0.11;100.00;98961.55;101880;1359;22629;-38
2022/12/07 06:52:47;;;;;;;2.20;1.50;;;;;;;0.15;100.00;98962.60;101874;1359;26546;-32
2022/12/07 06:55:13;;;;;;;1.10;0.90;;;;;;;0.08;100.00;98960.42;101913;1359;22603;-36
2022/12/07 06:57:38;;;;;;;1.00;0.70;;;;;;;-0.02;100.00;98962.38;101984;1372;22631;-33
2022/12/07 07:00:05;;;;;;;2.00;1.50;;;;;;;-0.06;100.00;98966.63;102005;1359;22370;-33
2022/12/07 07:02:30;;;;;;;1.40;1.20;;;;;;;-0.08;100.00;98974.38;102008;1368;22638;-33
2022/12/07 07:04:56;;;;;;;3.10;2.10;;;;;;;-0.13;100.00;98986.98;101979;1356;22337;-35
2022/12/07 07:07:21;;;;;;;1.80;1.60;;;;;;;-0.17;100.00;98989.25;101992;1356;22471;-37
2022/12/07 07:09:47;;;;;;;2.00;1.30;;;;;;;-0.10;100.00;98993.07;101985;1366;22445;-36
2022/12/07 07:12:12;;;;;;;1.60;0.90;;;;;;;-0.11;100.00;99001.97;101923;1372;22191;-34
2022/12/07 07:14:38;;;;;;;2.20;1.30;;;;;;;-0.03;100.00;99008.77;102017;1359;22731;-36
2022/12/07 07:17:03;;;;;;;2.90;1.50;;;;;;;-0.04;100.00;99009.86;101906;1359;22687;-36
2022/12/07 07:19:29;;;;;;;1.90;1.20;;;;;;;0.09;100.00;99000.49;101953;1359;22308;-33
2022/12/07 07:21:55;;;;;;;1.70;1.40;;;;;;;0.26;100.00;98995.75;101713;1358;22684;-32
2022/12/07 07:24:21;;;;;;;2.40;1.60;;;;;;;0.43;100.00;98986.23;101806;1356;22400;-33
2022/12/07 07:26:46;;;;;;;2.00;1.30;;;;;;;0.52;100.00;98973.48;101942;1375;22262;-36
2022/12/07 07:29:12;;;;;;;1.90;1.50;;;;;;;0.56;100.00;98963.18;101890;1357;22562;-36
2022/12/07 07:31:37;;;;;;;17.20;1.80;;;;;;;0.59;100.00;98950.61;101795;1356;22645;-36
2022/12/07 07:34:04;;;;;;;4.60;2.80;;;;;;;0.49;100.00;98939.75;102042;1356;22467;-33
2022/12/07 07:36:29;;;;;;;3.20;2.70;;;;;;;0.42;100.00;98942.54;101987;1359;22304;-33
2022/12/07 07:38:55;;;;;;;2.80;1.90;;;;;;;0.60;100.00;98941.86;101974;1356;22419;-33
2022/12/07 07:41:20;;;;;;;4.60;3.30;;;;;;;0.73;100.00;98929.59;101919;1356;22244;-36
2022/12/07 07:43:46;;;;;;;3.20;2.60;;;;;;;0.51;100.00;98930.22;102018;1360;22407;-33
2022/12/07 07:46:11;;;;;;;5.20;2.70;;;;;;;0.65;100.00;98928.33;101918;1355;22196;-36
2022/12/07 07:48:37;;;;;;;5.30;3.70;;;;;;;0.71;100.00;98925.10;101850;1362;22612;-33
2022/12/07 07:51:06;;;;;;;10.90;4.70;;;;;;;0.58;100.00;98920.38;101868;1358;22171;-32
2022/12/07 07:53:32;;;;;;;7.50;4.30;;;;;;;0.61;100.00;98918.88;101917;1374;22459;-32
2022/12/07 07:55:58;;;;;;;6.00;4.70;;;;;;;0.57;100.00;98922.54;102007;1356;22359;-36
2022/12/07 07:58:23;;;;;;;6.20;5.00;;;;;;;0.76;100.00;98922.15;101956;1356;22640;-36
2022/12/07 08:00:49;;;;;;;8.60;6.20;;;;;;;0.55;100.00;98918.77;101893;1365;24374;-35
2022/12/07 08:03:14;;;;;;;5.80;4.10;;;;;;;0.92;100.00;98919.14;102016;1361;22685;-32
2022/12/07 08:05:40;;;;;;;7.60;4.80;;;;;;;0.68;100.00;98912.44;101942;1375;22357;-32
2022/12/07 08:08:05;;;;;;;6.30;5.60;;;;;;;0.68;100.00;98912.04;101929;1375;22135;-36
2022/12/07 08:10:31;;;;;;;12.70;7.20;;;;;;;0.70;100.00;98912.70;101991;1359;22316;-32
2022/12/07 08:15:27;;;;;;;11.20;7.30;;;;;;;1.00;100.00;98900.14;102047;1373;22409;-32
2022/12/07 08:17:53;;;;;;;10.00;5.20;;;;;;;0.96;100.00;98892.29;101888;1359;22440;-35
2022/12/07 08:20:19;;;;;;;8.50;4.70;;;;;;;0.73;100.00;98888.64;102004;1370;22499;-36
2022/12/07 08:22:44;;;;;;;17.40;7.30;;;;;;;0.70;100.00;98896.84;101983;1375;22639;-32
2022/12/07 08:25:10;;;;;;;10.40;5.90;;;;;;;0.60;100.00;98900.25;101968;1359;22191;-36
2022/12/07 08:27:36;;;;;;;8.20;5.90;;;;;;;0.83;100.00;98897.04;101947;1372;22270;-35
2022/12/07 08:30:01;;;;;;;10.80;6.40;;;;;;;0.75;100.00;98896.20;101913;1356;23759;-32
2022/12/07 08:32:27;;;;;;;11.60;6.00;;;;;;;0.51;100.00;98908.91;101958;1360;22475;-32
2022/12/07 08:34:52;;;;;;;8.20;6.80;;;;;;;0.52;100.00;98917.23;101934;1375;22225;-32
2022/12/07 08:37:18;;;;;;;7.60;5.80;;;;;;;0.53;100.00;98920.37;101945;1358;22365;-35
2022/12/07 08:39:43;;;;;;;8.50;6.20;;;;;;;0.52;100.00;98927.68;101695;1359;22324;-34
2022/12/07 08:42:09;;;;;;;7.50;4.60;;;;;;;0.51;100.00;98934.41;101919;1361;22253;-36
2022/12/07 08:44:34;;;;;;;6.40;4.10;;;;;;;0.54;100.00;98937.85;102013;1356;22597;-32
2022/12/07 08:47:02;;;;;;;5.10;3.70;;;;;;;0.54;100.00;98939.96;101941;1359;22152;-32
2022/12/07 08:49:32;;;;;;;5.90;5.40;;;;;;;0.52;100.00;98944.20;101984;1356;22446;-35
2022/12/07 08:51:58;;;;;;;13.00;5.00;;;;;;;0.56;100.00;98950.04;101961;1359;22281;-32
2022/12/07 08:54:23;;;;;;;16.20;6.70;;;;;;;0.50;100.00;98952.46;101995;1358;22614;-35
2022/12/07 08:56:50;;;;;;;9.10;4.20;;;;;;;0.55;100.00;98951.80;101967;1356;22580;-32
2022/12/07 08:59:16;;;;;;;14.80;7.30;;;;;;;0.52;100.00;98951.46;101908;1377;22644;-32
2022/12/07 09:01:42;;;;;;;15.40;7.20;;;;;;;0.50;100.00;98956.17;101991;1373;22173;-35
2022/12/07 09:04:08;;;;;;;8.30;3.90;;;;;;;0.58;100.00;98963.55;102007;1372;22419;-35
2022/12/07 09:06:33;;;;;;;9.60;5.60;;;;;;;0.62;100.00;98964.92;101909;1357;22330;-32
2022/12/07 09:09:00;;;;;;;7.70;4.60;;;;;;;0.67;100.00;98961.84;101939;1356;23440;-33
2022/12/07 09:11:25;;;;;;;8.10;5.40;;;;;;;0.62;100.00;98952.79;101934;1374;22248;-35
2022/12/07 09:13:51;;;;;;;5.00;3.30;;;;;;;0.73;100.00;98946.83;101938;1371;22828;-32
2022/12/07 09:16:16;;;;;;;10.10;4.90;;;;;;;0.62;100.00;98937.27;101796;1372;22700;-36
2022/12/07 09:18:42;;;;;;;8.10;5.50;;;;;;;0.93;100.00;98927.95;101960;1375;22627;-32
2022/12/07 09:21:08;;;;;;;7.10;4.70;;;;;;;0.78;100.00;98909.14;101973;1356;22619;-32
2022/12/07 09:23:33;;;;;;;11.10;6.30;;;;;;;0.75;100.00;98908.73;101902;1360;22749;-32
2022/12/07 09:26:00;;;;;;;7.40;4.90;;;;;;;0.79;100.00;98906.27;102027;1356;22635;-33
2022/12/07 09:28:26;;;;;;;6.70;6.10;;;;;;;0.78;100.00;98906.10;101911;1350;22192;-32
2022/12/07 09:30:51;;;;;;;12.00;7.00;;;;;;;0.89;100.00;98898.39;101847;1357;24401;-35
2022/12/07 09:33:17;;;;;;;8.00;5.50;;;;;;;0.99;100.00;98888.46;102101;1374;22800;-32
2022/12/07 09:35:45;;;;;;;10.70;5.80;;;;;;;1.05;100.00;98877.30;101947;1365;22279;-32
2022/12/07 09:38:10;;;;;;;9.00;5.90;;;;;;;1.24;100.00;98857.67;101966;1372;22287;-32
2022/12/07 09:40:36;;;;;;;8.70;6.00;;;;;;;1.13;100.00;98851.52;101969;1358;22646;-35
2022/12/07 09:43:01;;;;;;;2.00;1.30;;;;;;;1.03;100.00;98855.09;101910;1377;22299;-35
2022/12/07 09:45:31;;;;;;;10.30;6.30;;;;;;;1.03;100.00;98860.38;101997;1346;22357;-35
2022/12/07 09:47:57;;;;;;;13.20;7.30;;;;;;;0.90;100.00;98860.79;101753;1369;23326;-35
2022/12/07 09:50:24;;;;;;;10.20;5.80;;;;;;;0.85;100.00;98861.73;101265;1359;22604;-32
2022/12/07 09:52:50;;;;;;;9.00;5.50;;;;;;;0.80;100.00;98868.80;101957;1373;22232;-32
2022/12/07 09:55:21;;;;;;;9.70;4.20;;;;;;;1.10;100.00;98861.51;101931;1349;22844;-35
2022/12/07 09:57:46;;;;;;;20.30;10.30;;;;;;;1.51;100.00;98853.59;101993;1376;22348;-32
2022/12/07 10:00:15;;;;;;;7.20;5.20;;;;;;;1.99;100.00;98835.70;102132;1358;22242;-32
2022/12/07 10:02:44;;;;;;;10.30;5.10;;;;;;;2.14;100.00;98824.80;101935;1365;22583;-36
2022/12/07 10:05:14;;;;;;;12.60;4.10;;;;;;;2.50;100.00;98808.52;101928;1356;22634;-35
2022/12/07 10:07:40;;;;;;;7.90;5.40;;;;;;;2.59;100.00;98797.84;101545;1363;23234;-35
2022/12/07 10:10:12;;;;;;;6.70;2.30;;;;;;;2.25;100.00;98795.58;101964;1374;22634;-31
2022/12/07 10:12:53;;;;;;;3.90;2.30;;;;;;;2.22;100.00;98798.22;101972;1374;22415;-32
2022/12/07 10:15:18;;;;;;;4.90;3.60;;;;;;;2.03;100.00;98804.56;101360;1360;22617;-35
2022/12/07 10:17:48;;;;;;;4.30;3.10;;;;;;;2.06;100.00;98805.48;101916;1377;23524;-31
2022/12/07 10:20:20;;;;;;;6.30;5.40;;;;;;;2.14;100.00;98806.08;101896;1354;22614;-31
2022/12/07 10:22:58;;;;;;;7.70;3.20;;;;;;;2.05;100.00;98802.70;101911;1372;22993;-31
2022/12/07 10:25:27;;;;;;;9.50;5.60;;;;;;;2.06;100.00;98799.15;101913;1375;22606;-31
2022/12/07 10:27:57;;;;;;;6.40;3.70;;;;;;;1.83;100.00;98801.42;101917;1376;22619;-31
2022/12/07 10:30:22;;;;;;;7.00;3.90;;;;;;;2.01;100.00;98802.98;101933;1357;22633;-31
2022/12/07 10:32:48;;;;;;;5.10;4.50;;;;;;;2.00;100.00;98802.54;101907;1358;22139;-32
2022/12/07 10:35:19;;;;;;;35.40;4.80;;;;;;;2.03;100.00;98801.69;101885;1366;22623;-31
2022/12/07 10:37:45;;;;;;;6.50;4.20;;;;;;;2.09;100.00;98798.69;101489;1356;616992;-35
2022/12/07 10:40:18;;;;;;;10.00;5.70;;;;;;;1.81;100.00;98794.41;101895;1375;22317;-34
2022/12/07 10:42:43;;;;;;;7.50;5.10;;;;;;;1.67;100.00;98799.20;101943;1356;22624;-35
2022/12/07 10:45:11;;;;;;;5.50;2.20;;;;;;;1.68;100.00;98796.83;101888;1359;22317;-35
2022/12/07 10:47:44;;;;;;;4.90;2.70;;;;;;;1.70;100.00;98796.95;101936;1355;23328;-35
2022/12/07 10:50:18;;;;;;;9.30;5.40;;;;;;;1.65;100.00;98795.38;101801;1374;22656;-31
2022/12/07 10:52:53;;;;;;;12.10;5.90;;;;;;;1.61;100.00;98792.39;101690;1369;22658;-35
2022/12/07 10:55:22;;;;;;;5.50;4.20;;;;;;;1.52;100.00;98790.63;101762;1376;22670;-35
2022/12/07 10:58:00;;;;;;;7.00;4.30;;;;;;;1.55;100.00;98791.78;101855;1377;24419;-30
2022/12/07 11:00:30;;;;;;;11.80;6.20;;;;;;;1.73;100.00;98789.77;101272;1377;22852;-31
2022/12/07 11:03:13;;;;;;;9.30;5.70;;;;;;;1.84;100.00;98790.75;101874;1360;22603;-35
2022/12/07 11:05:43;;;;;;;15.30;7.70;;;;;;;1.90;100.00;98779.04;101986;1375;22352;-35
2022/12/07 11:08:16;;;;;;;7.90;6.40;;;;;;;1.99;100.00;98781.53;101966;1359;22271;-31
2022/12/07 11:10:49;;;;;;;8.30;5.30;;;;;;;2.07;100.00;98779.39;101930;1356;22800;-35
2022/12/07 11:13:18;;;;;;;13.70;6.60;;;;;;;2.31;100.00;98769.41;101937;1356;23321;-35
2022/12/07 11:15:50;;;;;;;12.20;7.60;;;;;;;2.50;100.00;98760.07;102013;1374;22287;-32
2022/12/07 11:18:22;;;;;;;12.00;6.70;;;;;;;2.61;100.00;98753.82;101971;1356;22425;-32
2022/12/07 11:20:51;;;;;;;14.30;8.50;;;;;;;2.85;100.00;98749.72;100927;1375;22703;-32
2022/12/07 11:23:22;;;;;;;15.50;8.80;;;;;;;3.08;100.00;98740.90;101482;1374;22753;-30
2022/12/07 11:25:52;;;;;;;12.20;7.80;;;;;;;3.28;100.00;98737.89;101853;1357;22376;-35
2022/12/07 11:28:18;;;;;;;12.10;8.20;;;;;;;3.19;100.00;98734.69;102002;1368;25389;-37